South Washington, Vermont
Current Conditions -  °F | °C
As of 8:51 AM on Sunday 21 Dec 2014 (Local Time) from KMPV Reporting Station
Haze Haze  
Wind Chill: 16°   Ceiling: 3000
Heat Index: 16°   Visibility: 6mi
Dew Point: 13°   Wind: 0mph
Humidity: 88%   Direction: NA
Pressure: 30.33"   Gusts: NA
Location:  44.0671°N, 72.4216°W
Report Text: KMPV 211351Z AUTO 00000KT 6SM BR OVC030 M09/M11 A3033 RMK AO2 SLP295 T10891106 $
Loading
Personal Weather Stations






























Interactive Weather Map New forecast layout! Learn more

10-Day Weather Forecast

Advertisements
Track Severe Weather on mobile